createdAt,value
2023-05-09T00:00:55.037Z,11.23
2023-05-09T00:01:58.263Z,10.83
2023-05-09T00:02:59.762Z,12.37
2023-05-09T00:04:01.249Z,11.27
2023-05-09T00:05:03.500Z,11.90
2023-05-09T00:06:05.487Z,11.40
2023-05-09T00:07:07.328Z,12.37
2023-05-09T00:08:08.933Z,11.53
2023-05-09T00:09:10.623Z,12.23
2023-05-09T00:10:12.093Z,11.97
2023-05-09T00:11:13.475Z,11.90
2023-05-09T00:12:17.627Z,11.27
2023-05-09T00:13:21.295Z,12.27
2023-05-09T00:14:24.693Z,11.90
2023-05-09T00:15:26.150Z,11.50
2023-05-09T00:16:28.709Z,11.20
2023-05-09T00:17:33.453Z,12.37
2023-05-09T00:18:36.579Z,12.03
2023-05-09T00:19:39.047Z,11.97
2023-05-09T00:20:41.018Z,12.07
2023-05-09T00:21:42.602Z,11.60
2023-05-09T00:22:44.100Z,12.03
2023-05-09T00:23:46.330Z,11.67
2023-05-09T00:24:48.242Z,11.93
2023-05-09T00:25:49.622Z,11.10
2023-05-09T00:26:50.987Z,11.93
2023-05-09T00:27:52.337Z,11.80
2023-05-09T00:28:54.914Z,11.50
2023-05-09T00:29:56.749Z,11.93
2023-05-09T00:30:58.156Z,11.67
2023-05-09T00:32:02.064Z,12.40
2023-05-09T00:33:03.637Z,11.97
2023-05-09T00:34:05.193Z,11.23
2023-05-09T00:35:07.027Z,11.67
2023-05-09T00:36:08.461Z,11.70
2023-05-09T00:37:09.918Z,11.50
2023-05-09T00:38:11.465Z,11.57
2023-05-09T00:39:13.250Z,11.97
2023-05-09T00:40:14.996Z,11.30
2023-05-09T00:41:16.412Z,11.27
2023-05-09T00:42:17.777Z,11.50
2023-05-09T00:43:19.072Z,11.27
2023-05-09T00:44:20.595Z,11.07
2023-05-09T00:45:21.885Z,11.37
2023-05-09T00:46:23.544Z,10.80
2023-05-09T00:47:25.072Z,10.20
2023-05-09T00:48:26.677Z,10.93
2023-05-09T00:49:28.039Z,10.87
2023-05-09T00:50:29.483Z,10.07
2023-05-09T00:51:30.893Z,10.73
2023-05-09T00:52:32.939Z,10.50
2023-05-09T00:53:34.319Z,11.00
2023-05-09T00:54:35.623Z,10.80
2023-05-09T00:55:37.013Z,10.90
2023-05-09T00:56:38.432Z,10.13
2023-05-09T00:57:39.756Z,11.10
2023-05-09T00:58:41.124Z,11.10
2023-05-09T00:59:42.577Z,11.17
2023-05-09T01:00:43.893Z,11.50
2023-05-09T01:01:46.024Z,11.53
2023-05-09T01:02:49.362Z,12.40
2023-05-09T01:03:51.034Z,12.73
2023-05-09T01:04:53.270Z,12.23
2023-05-09T01:05:58.349Z,11.80
2023-05-09T01:07:18.558Z,13.10
2023-05-09T01:08:29.022Z,12.90
2023-05-09T01:09:39.460Z,12.67
2023-05-09T01:10:40.793Z,13.40
2023-05-09T01:11:47.918Z,13.40
2023-05-09T01:13:09.858Z,13.93
2023-05-09T01:14:11.183Z,12.80
2023-05-09T01:15:17.682Z,13.27
2023-05-09T01:16:48.036Z,12.53
2023-05-09T01:18:00.931Z,13.20
2023-05-09T01:19:10.354Z,13.53
2023-05-09T01:20:20.556Z,12.87
2023-05-09T01:21:26.841Z,13.23
2023-05-09T01:22:34.818Z,13.10
2023-05-09T01:23:45.388Z,12.60
2023-05-09T01:24:59.652Z,13.07
2023-05-09T01:26:04.804Z,13.50
2023-05-09T01:27:06.220Z,13.03
2023-05-09T01:28:27.771Z,13.40
2023-05-09T01:29:49.342Z,13.20
2023-05-09T01:30:51.552Z,12.57
2023-05-09T01:31:54.324Z,13.67
2023-05-09T01:32:59.393Z,12.57
2023-05-09T01:34:02.469Z,12.80
2023-05-09T01:35:04.748Z,13.70
2023-05-09T01:36:09.209Z,12.83
2023-05-09T01:37:12.994Z,13.07
2023-05-09T01:38:17.447Z,12.87
2023-05-09T01:39:19.455Z,12.13
2023-05-09T01:40:21.380Z,11.97
2023-05-09T01:41:23.795Z,12.03
2023-05-09T01:42:26.646Z,12.73
2023-05-09T01:43:29.060Z,12.50
2023-05-09T01:44:33.778Z,12.53
2023-05-09T01:45:36.265Z,13.03
2023-05-09T01:46:38.108Z,12.80
2023-05-09T01:47:39.852Z,12.73
2023-05-09T01:48:41.999Z,12.63
2023-05-09T01:49:44.857Z,11.87
2023-05-09T01:50:47.261Z,12.57
2023-05-09T01:51:49.891Z,13.03
2023-05-09T01:52:53.174Z,12.97
2023-05-09T01:53:56.797Z,13.73
2023-05-09T01:54:59.268Z,13.77
2023-05-09T01:56:01.619Z,13.03
2023-05-09T01:57:03.724Z,13.03
2023-05-09T01:58:05.892Z,13.33
2023-05-09T01:59:07.762Z,13.47
2023-05-09T02:00:10.609Z,13.40
2023-05-09T02:01:15.440Z,13.23
2023-05-09T02:02:17.080Z,13.23
2023-05-09T02:03:18.692Z,13.20
2023-05-09T02:04:24.305Z,13.57
2023-05-09T02:05:29.050Z,12.50
2023-05-09T02:06:31.612Z,13.93
2023-05-09T02:07:33.344Z,14.23
2023-05-09T02:08:34.884Z,14.37
2023-05-09T02:09:36.273Z,14.03
2023-05-09T02:10:37.672Z,14.03
2023-05-09T02:11:39.544Z,14.57
2023-05-09T02:12:40.956Z,14.40
2023-05-09T02:13:42.367Z,14.27
2023-05-09T02:14:44.085Z,14.13
2023-05-09T02:15:46.222Z,14.57
2023-05-09T02:16:47.873Z,14.00
2023-05-09T02:17:49.213Z,13.83
2023-05-09T02:18:52.187Z,14.70
2023-05-09T02:19:53.491Z,14.90
2023-05-09T02:20:54.819Z,14.40
2023-05-09T02:21:56.236Z,15.13
2023-05-09T02:22:57.578Z,14.63
2023-05-09T02:23:59.084Z,15.30
2023-05-09T02:25:01.233Z,15.40
2023-05-09T02:26:03.136Z,15.23
2023-05-09T02:27:05.270Z,15.33
2023-05-09T02:28:07.223Z,16.03
2023-05-09T02:29:09.291Z,14.73
2023-05-09T02:30:12.674Z,14.80
2023-05-09T02:31:14.359Z,15.53
2023-05-09T02:32:16.689Z,15.47
2023-05-09T02:33:18.413Z,15.30
2023-05-09T02:34:19.797Z,14.90
2023-05-09T02:35:21.961Z,14.73
2023-05-09T02:36:23.852Z,14.83
2023-05-09T02:37:25.377Z,15.43
2023-05-09T02:38:27.233Z,15.53
2023-05-09T02:39:29.937Z,15.03
2023-05-09T02:40:31.239Z,15.50
2023-05-09T02:41:32.554Z,15.37
2023-05-09T02:42:34.026Z,15.20
2023-05-09T02:43:35.592Z,16.17
2023-05-09T02:44:37.139Z,16.67
2023-05-09T02:45:38.579Z,16.30
2023-05-09T02:46:39.899Z,15.77
2023-05-09T02:47:41.319Z,16.33
2023-05-09T02:48:42.758Z,16.73
2023-05-09T02:49:44.715Z,16.30
2023-05-09T02:50:46.633Z,15.93
2023-05-09T02:51:47.942Z,16.60
2023-05-09T02:52:49.246Z,14.90
2023-05-09T02:53:50.580Z,15.13
2023-05-09T02:54:51.909Z,16.67
2023-05-09T02:55:53.930Z,16.80
2023-05-09T02:56:55.349Z,16.87
2023-05-09T02:58:09.404Z,16.73
2023-05-09T02:59:14.469Z,16.83
2023-05-09T03:00:17.942Z,17.60
2023-05-09T03:01:19.260Z,17.07
2023-05-09T03:02:20.869Z,16.87
2023-05-09T03:03:23.353Z,17.90
2023-05-09T03:04:25.634Z,16.93
2023-05-09T03:05:27.223Z,16.63
2023-05-09T03:06:28.525Z,16.43
2023-05-09T03:07:30.574Z,16.87
2023-05-09T03:08:32.566Z,17.20
2023-05-09T03:09:34.017Z,17.37
2023-05-09T03:10:35.989Z,16.90
2023-05-09T03:11:37.340Z,16.77
2023-05-09T03:12:39.064Z,16.63
2023-05-09T03:13:40.711Z,16.80
2023-05-09T03:14:42.051Z,16.80
2023-05-09T03:15:43.404Z,17.10
2023-05-09T03:16:47.026Z,16.27
2023-05-09T03:17:56.447Z,17.43
2023-05-09T03:18:57.864Z,15.87
2023-05-09T03:20:01.002Z,16.07
2023-05-09T03:21:03.852Z,15.70
2023-05-09T03:22:05.523Z,16.13
2023-05-09T03:23:10.377Z,15.60
2023-05-09T03:24:12.157Z,15.53
2023-05-09T03:25:13.694Z,15.43
2023-05-09T03:26:15.320Z,15.20
2023-05-09T03:27:16.936Z,15.17
2023-05-09T03:28:18.268Z,15.83
2023-05-09T03:29:19.789Z,15.83
2023-05-09T03:30:21.151Z,16.00
2023-05-09T03:31:24.140Z,15.57
2023-05-09T03:32:26.476Z,15.70
2023-05-09T03:33:27.794Z,15.53
2023-05-09T03:34:30.044Z,15.60
2023-05-09T03:35:32.330Z,16.10
2023-05-09T03:36:33.955Z,15.27
2023-05-09T03:37:36.280Z,16.40
2023-05-09T03:38:37.672Z,16.03
2023-05-09T03:39:39.201Z,15.87
2023-05-09T03:40:40.599Z,15.97
2023-05-09T03:41:44.198Z,15.20
2023-05-09T03:42:45.790Z,15.40
2023-05-09T03:43:47.152Z,15.47
2023-05-09T03:44:48.635Z,15.33
2023-05-09T03:45:50.957Z,15.23
2023-05-09T03:46:52.447Z,16.80
2023-05-09T03:47:54.043Z,16.27
2023-05-09T03:48:55.385Z,16.13
2023-05-09T03:49:56.740Z,16.07
2023-05-09T03:50:58.444Z,16.27
2023-05-09T03:52:03.364Z,16.77
2023-05-09T03:53:05.254Z,16.40
2023-05-09T03:54:09.600Z,16.60
2023-05-09T03:55:11.286Z,16.60
2023-05-09T03:56:13.596Z,17.13
2023-05-09T03:57:20.852Z,16.50
2023-05-09T03:58:24.779Z,16.30
2023-05-09T03:59:26.280Z,17.43
2023-05-09T04:00:28.122Z,16.97
2023-05-09T04:01:40.300Z,16.33
2023-05-09T04:02:43.329Z,16.73
2023-05-09T04:03:53.942Z,15.37
2023-05-09T04:04:58.797Z,16.30
2023-05-09T04:06:00.414Z,16.07
2023-05-09T04:07:08.894Z,16.67
2023-05-09T04:08:10.319Z,16.03
2023-05-09T04:09:11.770Z,16.37
2023-05-09T04:10:15.820Z,17.33
2023-05-09T04:11:17.449Z,16.07
2023-05-09T04:12:21.524Z,16.40
2023-05-09T04:13:23.026Z,16.47
2023-05-09T04:14:24.867Z,17.10
2023-05-09T04:15:26.775Z,17.87
2023-05-09T04:16:28.564Z,18.33
2023-05-09T04:17:29.926Z,17.73
2023-05-09T04:18:31.395Z,17.70
2023-05-09T04:19:32.827Z,18.00
2023-05-09T04:20:34.213Z,17.57
2023-05-09T04:21:35.972Z,17.90
2023-05-09T04:22:38.401Z,17.57
2023-05-09T04:23:39.814Z,18.37
2023-05-09T04:24:42.089Z,18.30
2023-05-09T04:25:44.068Z,18.10
2023-05-09T04:26:46.079Z,17.50
2023-05-09T04:27:50.605Z,18.23
2023-05-09T04:28:52.880Z,18.80
2023-05-09T04:29:54.207Z,18.20
2023-05-09T04:30:56.126Z,18.30
2023-05-09T04:31:57.971Z,17.07
2023-05-09T04:33:01.124Z,18.90
2023-05-09T04:34:03.751Z,18.33
2023-05-09T04:35:08.336Z,18.20
2023-05-09T04:36:14.272Z,18.57
2023-05-09T04:37:15.686Z,18.17
2023-05-09T04:38:17.237Z,17.73
2023-05-09T04:39:19.441Z,19.50
2023-05-09T04:40:29.317Z,18.57
2023-05-09T04:41:33.820Z,18.87
2023-05-09T04:42:35.979Z,19.40
2023-05-09T04:43:37.374Z,19.37
2023-05-09T04:44:39.148Z,18.67
2023-05-09T04:45:40.581Z,19.83
2023-05-09T04:46:42.022Z,19.13
2023-05-09T04:47:43.696Z,18.53
2023-05-09T04:48:45.012Z,17.90
2023-05-09T04:49:46.368Z,18.93
2023-05-09T04:50:48.595Z,18.47
2023-05-09T04:51:50.856Z,18.80
2023-05-09T04:52:52.163Z,18.87
2023-05-09T04:53:54.490Z,18.53
2023-05-09T04:54:59.843Z,18.87
2023-05-09T04:56:04.159Z,19.93
2023-05-09T04:57:17.417Z,18.33
2023-05-09T04:58:21.623Z,18.70
2023-05-09T04:59:23.101Z,18.67
2023-05-09T05:00:24.823Z,19.43
2023-05-09T05:01:26.875Z,18.37
2023-05-09T05:02:29.061Z,19.13
2023-05-09T05:03:30.714Z,19.03
2023-05-09T05:04:32.530Z,19.17
2023-05-09T05:05:37.213Z,18.73
2023-05-09T05:06:39.101Z,18.87
2023-05-09T05:07:40.906Z,19.13
2023-05-09T05:08:43.098Z,18.53
2023-05-09T05:09:44.579Z,18.77
2023-05-09T05:10:46.238Z,18.77
2023-05-09T05:11:59.553Z,17.60
2023-05-09T05:13:03.991Z,17.97
2023-05-09T05:14:05.482Z,18.93
2023-05-09T05:15:07.365Z,19.30
2023-05-09T05:16:08.758Z,18.57
2023-05-09T05:17:10.480Z,18.90
2023-05-09T05:18:12.241Z,19.87
2023-05-09T05:19:13.817Z,19.30
2023-05-09T05:20:16.572Z,18.80
2023-05-09T05:21:20.251Z,18.40
2023-05-09T05:22:21.631Z,18.67
2023-05-09T05:23:23.034Z,19.03
2023-05-09T05:24:28.048Z,17.87
2023-05-09T05:25:31.257Z,18.87
2023-05-09T05:26:34.162Z,18.47
2023-05-09T05:27:35.904Z,18.83
2023-05-09T05:28:37.330Z,18.37
2023-05-09T05:29:39.369Z,19.47
2023-05-09T05:30:41.181Z,20.10
2023-05-09T05:31:42.555Z,19.50
2023-05-09T05:32:44.009Z,19.90
2023-05-09T05:33:47.370Z,19.60
2023-05-09T05:34:49.247Z,20.23
2023-05-09T05:35:51.321Z,19.07
2023-05-09T05:36:52.618Z,19.57
2023-05-09T05:37:54.018Z,18.93
2023-05-09T05:38:56.451Z,19.00
2023-05-09T05:39:58.060Z,20.10
2023-05-09T05:41:00.135Z,20.30
2023-05-09T05:42:02.761Z,19.33
2023-05-09T05:43:04.098Z,19.33
2023-05-09T05:44:06.926Z,18.50
2023-05-09T05:45:09.366Z,19.63
2023-05-09T05:46:13.779Z,16.87
2023-05-09T05:47:15.254Z,19.23
2023-05-09T05:48:17.427Z,20.13
2023-05-09T05:49:18.739Z,17.80
2023-05-09T05:50:20.382Z,19.13
2023-05-09T05:51:21.768Z,18.73
2023-05-09T05:52:23.094Z,19.63
2023-05-09T05:53:24.464Z,20.97
2023-05-09T05:54:26.127Z,20.97
2023-05-09T05:55:29.023Z,21.40
2023-05-09T05:56:31.715Z,21.23
2023-05-09T05:57:34.513Z,20.77
2023-05-09T05:58:36.113Z,20.53
2023-05-09T05:59:38.271Z,20.43
2023-05-09T06:00:39.791Z,21.33
2023-05-09T06:01:42.800Z,20.50
2023-05-09T06:02:44.745Z,18.43
2023-05-09T06:03:55.715Z,19.13
2023-05-09T06:04:59.677Z,17.50
2023-05-09T06:06:01.228Z,19.27
2023-05-09T06:07:02.567Z,18.40
2023-05-09T06:08:04.076Z,19.13
2023-05-09T06:09:07.096Z,19.47
2023-05-09T06:10:10.312Z,19.47
2023-05-09T06:11:11.622Z,18.70
2023-05-09T06:12:16.472Z,19.23
2023-05-09T06:13:17.954Z,18.00
2023-05-09T06:14:24.231Z,18.03
2023-05-09T06:15:25.564Z,20.10
2023-05-09T06:16:27.605Z,20.17
2023-05-09T06:17:29.049Z,20.77
2023-05-09T06:18:30.864Z,19.40
2023-05-09T06:19:32.170Z,19.40
2023-05-09T06:20:33.501Z,20.60
2023-05-09T06:21:34.796Z,19.63
2023-05-09T06:22:36.191Z,19.47
2023-05-09T06:23:40.498Z,18.73
2023-05-09T06:24:46.028Z,17.90
2023-05-09T06:25:47.563Z,17.63
2023-05-09T06:26:49.745Z,18.43
2023-05-09T06:27:51.044Z,19.03
2023-05-09T06:28:52.346Z,19.03
2023-05-09T06:29:53.743Z,19.17
2023-05-09T06:30:55.193Z,19.43
2023-05-09T06:31:56.666Z,18.30
2023-05-09T06:32:58.297Z,17.77
2023-05-09T06:33:59.682Z,18.83
2023-05-09T06:35:01.064Z,16.87
2023-05-09T06:36:02.427Z,18.37
2023-05-09T06:37:03.748Z,18.93
2023-05-09T06:38:05.085Z,18.13
2023-05-09T06:39:06.569Z,18.83
2023-05-09T06:40:08.409Z,18.90
2023-05-09T06:41:10.295Z,17.63
2023-05-09T06:42:13.665Z,17.93
2023-05-09T06:43:20.712Z,18.37
2023-05-09T06:44:24.000Z,19.63
2023-05-09T06:45:25.926Z,17.93
2023-05-09T06:46:27.325Z,17.83
2023-05-09T06:47:28.723Z,18.92
2023-05-09T06:48:30.272Z,17.17
2023-05-09T06:49:31.559Z,18.83
2023-05-09T06:50:33.185Z,18.13
2023-05-09T06:51:35.034Z,16.83
2023-05-09T06:52:36.698Z,21.00
2023-05-09T06:53:38.409Z,19.20
2023-05-09T06:54:39.783Z,17.50
2023-05-09T06:55:41.476Z,18.05
2023-05-09T06:56:42.937Z,19.77
2023-05-09T06:57:44.307Z,19.67
2023-05-09T06:58:45.698Z,19.17
2023-05-09T06:59:47.053Z,18.07
2023-05-09T07:00:48.511Z,17.53
2023-05-09T07:01:49.935Z,16.27
2023-05-09T07:02:51.410Z,18.08
2023-05-09T07:03:52.786Z,17.10
2023-05-09T07:04:54.240Z,16.87
2023-05-09T07:05:58.699Z,18.23
2023-05-09T07:07:00.796Z,18.73
2023-05-09T07:08:02.174Z,18.85
2023-05-09T07:09:04.275Z,18.10
2023-05-09T07:10:11.419Z,19.15
2023-05-09T07:11:13.705Z,18.85
2023-05-09T07:12:15.110Z,18.48
2023-05-09T07:13:16.476Z,17.17
2023-05-09T07:14:17.923Z,18.60
2023-05-09T07:15:32.435Z,19.88
2023-05-09T07:16:40.592Z,20.07
2023-05-09T07:17:41.980Z,21.00
2023-05-09T07:18:43.367Z,21.58
2023-05-09T07:19:44.722Z,22.23
2023-05-09T07:20:46.465Z,22.80
2023-05-09T07:21:47.781Z,24.77
2023-05-09T07:22:49.164Z,22.92
2023-05-09T07:23:50.582Z,22.60
2023-05-09T07:24:52.021Z,21.60
2023-05-09T07:26:00.710Z,20.57
2023-05-09T07:27:03.707Z,21.27
2023-05-09T07:28:05.282Z,19.30
2023-05-09T07:29:06.582Z,19.47
2023-05-09T07:30:09.269Z,20.00
2023-05-09T07:31:10.694Z,20.23
2023-05-09T07:32:12.157Z,21.90
2023-05-09T07:33:13.643Z,20.95
2023-05-09T07:34:16.304Z,19.52
2023-05-09T07:35:18.208Z,20.38
2023-05-09T07:36:19.522Z,20.80
2023-05-09T07:37:20.873Z,20.55
2023-05-09T07:38:22.206Z,19.92
2023-05-09T07:39:23.522Z,20.05
2023-05-09T07:40:24.889Z,20.23
2023-05-09T07:41:26.866Z,21.27
2023-05-09T07:42:28.439Z,20.50
2023-05-09T07:43:29.828Z,21.63
2023-05-09T07:44:31.292Z,20.60
2023-05-09T07:45:32.672Z,19.17
2023-05-09T07:46:34.060Z,20.60
2023-05-09T07:47:35.575Z,19.57
2023-05-09T07:48:36.946Z,19.65
2023-05-09T07:49:40.149Z,19.02
2023-05-09T07:50:41.551Z,18.83
2023-05-09T07:51:42.982Z,20.52
2023-05-09T07:52:44.375Z,20.30
2023-05-09T07:53:45.787Z,20.40
2023-05-09T07:54:47.075Z,21.25
2023-05-09T07:55:50.069Z,19.07
2023-05-09T07:56:51.455Z,20.50
2023-05-09T07:57:52.760Z,21.52
2023-05-09T07:58:55.687Z,19.13
2023-05-09T07:59:57.311Z,21.23
2023-05-09T08:00:59.118Z,19.97
2023-05-09T08:02:00.822Z,21.77
2023-05-09T08:03:02.356Z,20.13
2023-05-09T08:04:06.565Z,21.30
2023-05-09T08:05:08.550Z,20.98
2023-05-09T08:06:09.931Z,21.35
2023-05-09T08:07:11.802Z,20.10
2023-05-09T08:08:13.235Z,20.60
2023-05-09T08:09:14.637Z,21.00
2023-05-09T08:10:16.515Z,20.75
2023-05-09T08:11:17.956Z,20.35
2023-05-09T08:12:19.361Z,19.83
2023-05-09T08:13:22.152Z,21.13
2023-05-09T08:14:23.815Z,21.35
2023-05-09T08:15:25.176Z,21.25
2023-05-09T08:16:26.710Z,21.55
2023-05-09T08:17:28.089Z,22.35
2023-05-09T08:18:29.493Z,22.20
2023-05-09T08:19:30.901Z,23.40
2023-05-09T08:20:34.373Z,22.42
2023-05-09T08:21:35.924Z,21.98
2023-05-09T08:22:38.757Z,22.20
2023-05-09T08:23:41.193Z,22.92
2023-05-09T08:24:42.563Z,22.60
2023-05-09T08:25:43.943Z,22.63
2023-05-09T08:26:45.284Z,21.38
2023-05-09T08:27:46.721Z,20.98
2023-05-09T08:28:48.056Z,21.15
2023-05-09T08:29:49.399Z,21.85
2023-05-09T08:30:51.734Z,20.45
2023-05-09T08:31:53.457Z,21.10
2023-05-09T08:32:55.522Z,21.08
2023-05-09T08:33:57.078Z,20.10
2023-05-09T08:34:58.376Z,20.35
2023-05-09T08:36:00.169Z,20.63
2023-05-09T08:37:01.909Z,21.83
2023-05-09T08:38:03.685Z,20.75
2023-05-09T08:39:04.990Z,21.13
2023-05-09T08:40:10.026Z,20.33
2023-05-09T08:41:11.344Z,21.15
2023-05-09T08:42:15.785Z,20.80
2023-05-09T08:43:20.234Z,21.08
2023-05-09T08:44:23.376Z,20.65
2023-05-09T08:45:26.383Z,19.90
2023-05-09T08:46:30.861Z,19.88
2023-05-09T08:47:35.495Z,21.17
2023-05-09T08:48:39.531Z,20.98
2023-05-09T08:49:41.264Z,19.67
2023-05-09T08:50:43.064Z,20.20
2023-05-09T08:51:44.801Z,20.73
2023-05-09T08:52:46.374Z,19.63
2023-05-09T08:53:47.685Z,20.45
2023-05-09T08:54:49.024Z,19.67
2023-05-09T08:55:50.792Z,19.27
2023-05-09T08:56:52.203Z,19.88
2023-05-09T08:57:53.763Z,20.90
2023-05-09T08:58:55.481Z,18.80
2023-05-09T08:59:56.946Z,19.80
2023-05-09T09:00:58.983Z,19.83
2023-05-09T09:02:00.388Z,20.48
2023-05-09T09:03:02.341Z,22.02
2023-05-09T09:04:07.646Z,21.35
2023-05-09T09:05:19.694Z,21.58
2023-05-09T09:06:30.828Z,21.65
2023-05-09T09:07:33.877Z,22.60
2023-05-09T09:08:35.632Z,22.35
2023-05-09T09:09:37.106Z,21.40
2023-05-09T09:10:40.551Z,22.75
2023-05-09T09:11:42.120Z,22.45
2023-05-09T09:12:43.648Z,22.92
2023-05-09T09:13:45.918Z,22.23
2023-05-09T09:14:49.528Z,21.58
2023-05-09T09:15:52.877Z,20.90
2023-05-09T09:16:55.541Z,20.73
2023-05-09T09:17:58.898Z,19.83
2023-05-09T09:19:00.307Z,19.83
2023-05-09T09:20:05.598Z,19.40
2023-05-09T09:21:09.584Z,20.05
2023-05-09T09:22:13.730Z,19.33
2023-05-09T09:23:18.188Z,19.80
2023-05-09T09:24:21.368Z,19.60
2023-05-09T09:25:22.734Z,19.15
2023-05-09T09:26:24.747Z,19.35
2023-05-09T09:27:26.264Z,19.83
2023-05-09T09:28:28.040Z,18.55
2023-05-09T09:29:29.396Z,18.50
2023-05-09T09:30:30.813Z,20.27
2023-05-09T09:31:33.212Z,19.67
2023-05-09T09:32:35.223Z,19.80
2023-05-09T09:33:36.556Z,19.70
2023-05-09T09:34:38.177Z,20.77
2023-05-09T09:35:40.274Z,19.10
2023-05-09T09:36:41.678Z,19.95
2023-05-09T09:37:43.662Z,20.00
2023-05-09T09:38:45.045Z,19.02
2023-05-09T09:39:56.159Z,19.77
2023-05-09T09:40:57.949Z,19.05
2023-05-09T09:42:10.015Z,19.40
2023-05-09T09:43:11.327Z,19.35
2023-05-09T09:44:14.888Z,18.55
2023-05-09T09:45:17.112Z,18.83
2023-05-09T09:46:19.312Z,18.30
2023-05-09T09:47:20.722Z,18.45
2023-05-09T09:48:25.989Z,18.17
2023-05-09T09:49:27.364Z,18.75
2023-05-09T09:50:28.678Z,19.08
2023-05-09T09:51:30.081Z,19.10
2023-05-09T09:52:31.956Z,19.40
2023-05-09T09:53:38.475Z,19.13
2023-05-09T09:54:39.898Z,18.23
2023-05-09T09:55:48.920Z,19.42
2023-05-09T09:56:53.479Z,17.25
2023-05-09T09:57:55.150Z,16.58
2023-05-09T09:59:13.834Z,17.42
2023-05-09T10:00:16.540Z,16.30
2023-05-09T10:01:18.353Z,16.38
2023-05-09T10:02:23.397Z,17.10
2023-05-09T10:03:24.866Z,17.80
2023-05-09T10:04:27.833Z,18.15
2023-05-09T10:05:34.339Z,17.30
2023-05-09T10:06:35.687Z,18.02
2023-05-09T10:07:37.503Z,17.67
2023-05-09T10:08:39.500Z,18.23
2023-05-09T10:09:41.092Z,16.33
2023-05-09T10:10:42.552Z,15.60
2023-05-09T10:11:44.029Z,15.63
2023-05-09T10:12:45.463Z,15.32
2023-05-09T10:13:47.196Z,15.82
2023-05-09T10:14:48.888Z,16.48
2023-05-09T10:15:53.966Z,15.63
2023-05-09T10:16:59.218Z,15.57
2023-05-09T10:18:01.869Z,14.75
2023-05-09T10:19:03.884Z,15.43
2023-05-09T10:20:05.927Z,14.07
2023-05-09T10:21:07.953Z,14.68
2023-05-09T10:22:10.287Z,16.55
2023-05-09T10:23:12.949Z,16.15
2023-05-09T10:24:14.749Z,15.23
2023-05-09T10:25:20.881Z,15.68
2023-05-09T10:26:25.577Z,15.02
2023-05-09T10:27:27.525Z,14.23
2023-05-09T10:28:35.216Z,15.95
2023-05-09T10:29:38.961Z,15.50
2023-05-09T10:30:55.610Z,15.02
2023-05-09T10:31:58.908Z,13.93
2023-05-09T10:33:11.245Z,14.25
2023-05-09T10:34:13.078Z,12.02
2023-05-09T10:35:17.123Z,13.32
2023-05-09T10:36:20.618Z,11.65
2023-05-09T10:37:22.733Z,11.95
2023-05-09T10:38:24.896Z,12.75
2023-05-09T10:39:27.379Z,12.13
2023-05-09T10:40:31.992Z,11.50
2023-05-09T10:41:33.564Z,11.10
2023-05-09T10:42:35.490Z,10.98
2023-05-09T10:43:37.154Z,10.93
2023-05-09T10:44:38.897Z,11.18
2023-05-09T10:45:40.636Z,10.77
2023-05-09T10:46:42.184Z,11.68
2023-05-09T10:47:44.934Z,12.15
2023-05-09T10:48:49.098Z,12.02
2023-05-09T10:49:50.946Z,11.93
2023-05-09T10:50:56.850Z,13.35
2023-05-09T10:52:01.852Z,13.05
2023-05-09T10:53:11.760Z,11.50
2023-05-09T10:54:25.360Z,11.00
2023-05-09T10:55:35.476Z,10.63
2023-05-09T10:56:37.198Z,12.73
2023-05-09T10:57:42.736Z,11.82
2023-05-09T10:58:47.566Z,10.98
2023-05-09T10:59:51.467Z,11.43
2023-05-09T11:00:55.273Z,11.00
2023-05-09T11:02:00.979Z,12.25
2023-05-09T11:03:09.142Z,11.85
2023-05-09T11:04:14.933Z,10.40
2023-05-09T11:05:17.560Z,11.70
2023-05-09T11:06:46.166Z,11.18
2023-05-09T11:07:50.487Z,9.38
2023-05-09T11:08:52.039Z,8.82
2023-05-09T11:10:06.744Z,9.32
2023-05-09T11:11:24.556Z,8.18
2023-05-09T11:12:26.133Z,8.98
2023-05-09T11:13:30.944Z,9.05
2023-05-09T11:14:35.647Z,9.45
2023-05-09T11:15:50.150Z,10.00
2023-05-09T11:16:59.762Z,10.68
2023-05-09T11:18:05.722Z,9.02
2023-05-09T11:19:08.340Z,9.27
2023-05-09T11:20:12.456Z,8.60
2023-05-09T11:21:14.379Z,8.77
2023-05-09T11:22:15.798Z,9.10
2023-05-09T11:23:21.530Z,8.10
2023-05-09T11:24:23.108Z,7.75
2023-05-09T11:25:28.982Z,7.80
2023-05-09T11:26:31.289Z,7.97
2023-05-09T11:27:45.108Z,6.97
2023-05-09T11:28:52.062Z,6.57
2023-05-09T11:29:54.793Z,7.85
2023-05-09T11:31:15.403Z,7.43
2023-05-09T11:32:16.929Z,7.25
2023-05-09T11:33:22.755Z,8.30
2023-05-09T11:34:24.307Z,8.38
2023-05-09T11:35:28.493Z,9.80
2023-05-09T11:36:32.025Z,8.55
2023-05-09T11:37:33.923Z,7.88
2023-05-09T11:38:42.798Z,8.60
2023-05-09T11:40:01.022Z,8.55
2023-05-09T11:41:04.553Z,6.80
2023-05-09T11:42:05.980Z,7.72
2023-05-09T11:43:07.633Z,6.00
2023-05-09T11:44:16.549Z,8.13
2023-05-09T11:45:18.319Z,8.45
2023-05-09T11:46:19.955Z,8.35
2023-05-09T11:47:24.568Z,8.07
2023-05-09T11:48:26.308Z,6.93
2023-05-09T11:49:28.218Z,7.68
2023-05-09T11:50:29.927Z,7.57
2023-05-09T11:51:31.393Z,6.47
2023-05-09T11:52:33.357Z,8.02
2023-05-09T11:53:34.831Z,7.55
2023-05-09T11:54:38.954Z,6.68
2023-05-09T11:55:41.381Z,6.72
2023-05-09T11:56:45.190Z,7.00
2023-05-09T11:57:48.991Z,7.43
2023-05-09T11:58:53.132Z,6.57
2023-05-09T11:59:54.455Z,6.68
2023-05-09T12:00:55.846Z,6.93
2023-05-09T12:01:57.367Z,7.85
2023-05-09T12:02:59.183Z,8.13
2023-05-09T12:04:02.147Z,7.50
2023-05-09T12:05:07.002Z,7.50
2023-05-09T12:06:08.952Z,7.28
2023-05-09T12:07:14.056Z,7.38
2023-05-09T12:08:16.332Z,7.72
2023-05-09T12:09:20.003Z,7.47
2023-05-09T12:10:22.990Z,7.95
2023-05-09T12:11:24.705Z,7.25
2023-05-09T12:12:26.340Z,7.53
2023-05-09T12:13:27.738Z,7.20
2023-05-09T12:14:30.394Z,7.57
2023-05-09T12:15:37.995Z,7.22
2023-05-09T12:16:45.446Z,7.30
2023-05-09T12:17:49.757Z,8.73
2023-05-09T12:18:52.539Z,7.75
2023-05-09T12:19:53.974Z,7.88
2023-05-09T12:20:55.360Z,7.80
2023-05-09T12:22:01.310Z,7.70
2023-05-09T12:23:03.150Z,7.47
2023-05-09T12:24:04.697Z,7.50
2023-05-09T12:25:07.643Z,7.07
2023-05-09T12:26:09.653Z,7.15
2023-05-09T12:27:11.091Z,7.05
2023-05-09T12:28:12.938Z,7.30
2023-05-09T12:29:14.366Z,6.88
2023-05-09T12:30:16.218Z,7.70
2023-05-09T12:31:18.294Z,6.90
2023-05-09T12:32:20.310Z,6.70
2023-05-09T12:33:22.306Z,7.85
2023-05-09T12:34:23.763Z,7.38
2023-05-09T12:35:25.556Z,7.20
2023-05-09T12:36:27.385Z,7.35
2023-05-09T12:37:30.688Z,7.47
2023-05-09T12:38:32.363Z,7.30
2023-05-09T12:39:33.955Z,7.32
2023-05-09T12:40:35.568Z,7.07
2023-05-09T12:41:57.530Z,7.20
2023-05-09T12:43:04.551Z,6.80
2023-05-09T12:44:06.077Z,6.10
2023-05-09T12:45:08.874Z,6.07
2023-05-09T12:46:10.430Z,6.68
2023-05-09T12:47:12.276Z,6.80
2023-05-09T12:48:13.746Z,6.82
2023-05-09T12:49:24.905Z,7.75
2023-05-09T12:50:34.943Z,6.32
2023-05-09T12:51:36.395Z,6.53
2023-05-09T12:53:02.190Z,7.13
2023-05-09T12:54:05.888Z,6.75
2023-05-09T12:55:11.266Z,6.53
2023-05-09T12:56:19.547Z,5.25
2023-05-09T12:57:24.957Z,6.03
2023-05-09T12:58:29.363Z,6.18
2023-05-09T12:59:35.313Z,6.63
2023-05-09T13:00:48.361Z,6.00
2023-05-09T13:01:54.608Z,6.82
2023-05-09T13:02:56.268Z,7.20
2023-05-09T13:04:05.228Z,6.80
2023-05-09T13:05:15.595Z,6.35
2023-05-09T13:06:17.305Z,7.10
2023-05-09T13:07:19.074Z,7.32
2023-05-09T13:08:21.596Z,6.80
2023-05-09T13:09:23.990Z,6.53
2023-05-09T13:10:28.561Z,7.18
2023-05-09T13:11:30.192Z,7.28
2023-05-09T13:12:31.931Z,6.15
2023-05-09T13:13:33.366Z,6.75
2023-05-09T13:14:34.850Z,6.45
2023-05-09T13:15:36.367Z,6.78
2023-05-09T13:16:37.754Z,6.32
2023-05-09T13:17:39.351Z,6.30
2023-05-09T13:18:41.169Z,5.32
2023-05-09T13:19:45.187Z,5.75
2023-05-09T13:20:47.052Z,6.30
2023-05-09T13:21:48.534Z,6.30
2023-05-09T13:22:50.325Z,5.25
2023-05-09T13:23:54.751Z,5.50
2023-05-09T13:24:56.678Z,4.88
2023-05-09T13:25:58.323Z,4.70
2023-05-09T13:26:59.815Z,4.80
2023-05-09T13:28:01.308Z,4.82
2023-05-09T13:29:02.943Z,4.72
2023-05-09T13:30:08.511Z,4.35
2023-05-09T13:31:12.141Z,3.45
2023-05-09T13:32:13.617Z,3.00
2023-05-09T13:33:25.272Z,3.00
2023-05-09T13:34:27.651Z,3.30
2023-05-09T13:35:29.732Z,3.20
2023-05-09T13:36:32.479Z,3.25
2023-05-09T13:37:34.278Z,4.82
2023-05-09T13:38:38.896Z,5.68